Bowerman Airport
KHQM : now visible

Airfield :











YOU CAN JOIN US ON...

 
LOGIN :

Register | Disclaimer

   EN    FR    IT 

 









Legend :    VFR   Marginal VFR   IFR   Intensive IFR   Very Intensive IFR
Visi :
Ceiling :
>= 8 km
>= 3000ft
5 to 8 km
1000 to 3000 ft
1500m to 5 km
500 to 1000 ft
800 to 1500m
200 to 500 ft
< 800m
< 200 ft
Symbols :   Thunderstorms  Fog  Heavy snow  Heavy precipitations  Wind > 20 kt






- Airport Elevation : 18 ft


KHQM - Bowerman

CURRENT METAR :
  • 271253Z AUTO 19015G24KT 10SM -RA FEW012 OVC070 14/12 A2975 RMK AO2 SLP078 P0011 T01440122

EXPIRED METARs :
  • 271244Z AUTO 20014KT 9SM -RA SCT013 OVC070 14/12 A2975 RMK AO2 P0011 T01440122
  • 271217Z AUTO 18012KT 8SM -RA BKN014 BKN023 OVC055 14/12 A2975 RMK AO2 P0008 T01440122
  • 271153Z AUTO 19016KT 9SM -RA SCT017 BKN065 OVC080 14/12 A2974 RMK AO2 RAB16E26B33 SLP076 P0002 60007 70169 T01440122 10161 20144 50000
  • 271128Z AUTO 19013KT 10SM FEW013 BKN018 OVC090 15/13 A2975 RMK AO2 RAB16E26 P0001 T01500128
  • 271053Z AUTO 20012KT 10SM BKN040 BKN050 BKN110 16/13 A2975 RMK AO2 SLP076 T01560133

TAF KHQM
Valid from the 27 at 12:00 until the 28 at 12:00 UTC


271123Z 2712/2812 20012KT P6SM VCSH SCT025 BKN040 OVC080
TEMPO 2712/2714 2SM +SHRA OVC025
FM271600 18010KT 3SM -SHRA BR OVC020
FM272000 20010KT 6SM BR VCSH BKN030 OVC050
FM280600 18018KT 4SM -SHRA BR OVC015
KZSE FIR / North America



MET'MAP, your aeronautical weather chart ! - Copyright ORBIFLY December 2007 - Disclaimer

ORBIFLY MET'MAP TEAM :

Programming & Development : Alexandra Zaïnal
Concept & original design : Baudouin d'Aumeries
Assistance for programming : Marc-Olivier Méhu
Technical & hardware support : Manuel Goepfert

Contact : metmap@orbifly.com




SOURCES & CREDITS :

   NOAA       Earth
Advisory